KONT/ONT METAR and TAF weather

Enter ICAO airport designator
Station Type Date Time Source
KONT METAR 2019/08/25 07:53 UTC NOAA

KONT 250753Z 23006KT 10SM CLR 22/17 A2998 RMK AO2 SLP131 T02170167 403720183


Station Type Date Time Source
KONT Decoded METAR 2019/08/25 07:53 UTC NOAA

Station name not available
Aug 25, 2019 - 03:53 AM EDT / 2019.08.25 0753 UTC
Wind: from the SW (230 degrees) at 7 MPH (6 KT):0
Visibility: 10 mile(s):0
Sky conditions: clear
Temperature: 71.1 F (21.7 C)
Dew Point: 62.1 F (16.7 C)
Relative Humidity: 73%
Pressure (altimeter): 29.98 in. Hg (1015 hPa)
ob: KONT 250753Z 23006KT 10SM CLR 22/17 A2998 RMK AO2 SLP131 T02170167 403720183
cycle: 8

Station Type Date Time Source
KONT TAF 2019/08/25 06:22 UTC NOAA

TAF KONT 250520Z 2506/2612 VRB05KT P6SM FEW250
FM252100 25010G18KT P6SM SCT150
FM260500 25006KT P6SM SCT150

Example: see airport list